Buoy 21952

sailwx.info

Track history (hours):
 
Tides and Currents Weather Stations Pressure Air Temp Water Temp Dewpoint Dewpoint Depression Visibility Wind Speed Wind Dir Waves Ship Positions

Drifting buoy 21952

Last reported at 2018-Jun-20 13:00 UTC. Time now 2018-Jun-20 15:01 UTC.
Position N 32°40' W 149°53'.

Barometer 1017.1 mb
Water temperature 21.0 ° C

Date/timePositionNaut miles runAvg speedWind from/ knotsBaromVisibWave heightAir tempDewpointWater temp
2018-Jun-20 13:00N 32°40' W 149°53'2 2.1 1017.1 21.0
2018-Jun-20 12:00N 32°41' W 149°51'2 0.3 1016.9 20.9
2018-Jun-20 07:00N 32°42' W 149°50'1 1.3 1017.2 20.9
2018-Jun-20 06:00N 32°43' W 149°49'1 1.2 1016.8 20.9
2018-Jun-20 05:00N 32°44' W 149°49'2 1.6 1016.3 20.9
2018-Jun-20 04:00N 32°46' W 149°48'1 0.6 1015.9 21.0
2018-Jun-20 03:00N 32°46' W 149°48'2 1.9 1015.4 21.1
2018-Jun-20 02:00N 32°48' W 149°47'0 0.0 1015.3 21.2
2018-Jun-20 01:00N 32°48' W 149°47'0 0.0 1015.3 21.4
2018-Jun-20 00:00N 32°48' W 149°47'1 0.3 1015.2 22.9
2018-Jun-19 20:00N 32°49' W 149°49'1 0.6 1015.2 21.0
2018-Jun-19 19:00N 32°49' W 149°49'1 0.5 1014.9 20.9
2018-Jun-19 18:00N 32°49' W 149°49'1 0.8 1015.0 20.8
2018-Jun-19 17:00N 32°49' W 149°50'1 0.8 1014.7 20.8
2018-Jun-19 16:00N 32°49' W 149°49'1 0.6 1014.2 20.8
2018-Jun-19 15:00N 32°49' W 149°49'0 0.0 1013.9 20.8
2018-Jun-19 14:00N 32°49' W 149°49'0 0.0 1013.4 20.7
2018-Jun-19 13:00N 32°49' W 149°49'3 0.4 1013.3 20.7
2018-Jun-19 06:00N 32°46' W 149°48'1 0.6 1013.7 20.8
2018-Jun-19 05:00N 32°47' W 149°48'1 0.5 1013.3 20.8
2018-Jun-19 04:00N 32°47' W 149°49'0 0.0 1013.1 20.9
2018-Jun-19 03:00N 32°47' W 149°49'2 1.5 1012.6 20.8
2018-Jun-19 02:00N 32°47' W 149°50'0 0.0 1012.8 20.9
2018-Jun-19 01:00N 32°47' W 149°50'0 0.0 1013.0 20.8
2018-Jun-19 00:00N 32°47' W 149°50'4 1.3 1013.5 20.8
2018-Jun-18 21:00N 32°44' W 149°53'1 0.8 1014.2 21.1
2018-Jun-18 20:00N 32°43' W 149°54'0 0.0 1014.3 21.1
2018-Jun-18 19:00N 32°43' W 149°54'1 0.8 1014.3 21.1
2018-Jun-18 18:00N 32°43' W 149°55'1 0.8 1014.2 21.1
2018-Jun-18 17:00N 32°42' W 149°55'1 1.2 1014.1 21.1
2018-Jun-18 16:00N 32°41' W 149°56'0 0.0 1013.8 21.1
2018-Jun-18 15:00N 32°41' W 149°56'1 1.2 1013.6 21.2
2018-Jun-18 14:00N 32°41' W 149°55'3 3.4 1013.5 21.2
2018-Jun-18 13:00N 32°38' W 149°57'1 0.1 1013.8 21.2
2018-Jun-18 07:00N 32°37' W 149°57'1 0.6 1016.2 21.2
2018-Jun-18 06:00N 32°37' W 149°57'1 1.2 1016.0 21.3
2018-Jun-18 05:00N 32°37' W 149°58'1 0.8 1015.9 21.3
2018-Jun-18 04:00N 32°37' W 149°58'1 0.5 1015.8 21.3
2018-Jun-18 03:00N 32°37' W 149°57'3 2.5 1015.9 21.3
2018-Jun-18 02:00N 32°37' W 150°00'0 0.0 1016.2 21.3
2018-Jun-18 01:00N 32°37' W 150°00'1 0.5 1016.6 21.3
2018-Jun-17 23:00N 32°37' W 149°59'3 0.9 1017.4 21.3
2018-Jun-17 20:00N 32°35' W 150°01'0 0.0 1018.4 21.3
2018-Jun-17 19:00N 32°35' W 150°01'1 1.2 1018.5 21.3
2018-Jun-17 18:00N 32°35' W 150°00'2 2.1 1018.6 21.3
2018-Jun-17 17:00N 32°34' W 150°01'1 0.6 1018.8 21.3
2018-Jun-17 16:00N 32°33' W 150°01'1 0.8 1018.8 21.3
2018-Jun-17 15:00N 32°32' W 150°01'1 1.2 1018.7 21.3
2018-Jun-17 14:00N 32°32' W 149°59'3 3.0 1018.6 21.2
2018-Jun-17 13:00N 32°29' W 150°00'1 0.1 1018.3 21.3
2018-Jun-17 07:00N 32°29' W 149°59'1 0.5 1021.2 21.3
2018-Jun-17 06:00N 32°29' W 149°59'0 0.0 1020.9 21.3
2018-Jun-17 05:00N 32°29' W 149°59'1 0.6 1020.8 21.3
2018-Jun-17 04:00N 32°28' W 149°59'1 1.2 1020.9 21.3
2018-Jun-17 03:00N 32°27' W 149°59'0 0.0 1021.0 21.3
2018-Jun-17 02:00N 32°27' W 149°59'0 0.0 1021.1 21.3
2018-Jun-17 01:00N 32°27' W 149°59'1 0.6 1021.2 21.3
2018-Jun-17 00:00N 32°26' W 149°59'0 0.0 1021.6 21.3
2018-Jun-16 23:00N 32°26' W 149°59'2 0.9 1022.2 21.2
2018-Jun-16 21:00N 32°25' W 149°58'1 0.6 1022.6 21.1
2018-Jun-16 20:00N 32°24' W 149°58'1 0.8 1022.9 21.0
2018-Jun-16 19:00N 32°23' W 149°58'1 0.8 1023.0 21.0
2018-Jun-16 18:00N 32°23' W 149°57'0 0.0 1023.2 21.0
2018-Jun-16 17:00N 32°23' W 149°57'1 0.6 1022.8 21.0
2018-Jun-16 16:00N 32°22' W 149°57'0 0.0 1022.6 20.9
2018-Jun-16 15:00N 32°22' W 149°57'1 1.2 1022.3 20.9
2018-Jun-16 14:00N 32°21' W 149°57'0 0.0 1022.5 21.0
2018-Jun-16 12:00N 32°21' W 149°57'3 3.2 1022.5 21.0
2018-Jun-16 11:00N 32°18' W 149°56'1 0.3 1022.8 21.1
2018-Jun-16 07:00N 32°17' W 149°55'0 0.0 1023.5 21.1
2018-Jun-16 06:00N 32°17' W 149°55'1 1.2 1023.2 21.2
2018-Jun-16 05:00N 32°17' W 149°53'1 0.5 1023.1 21.2
2018-Jun-16 04:00N 32°17' W 149°53'0 0.0 1022.9 21.3
2018-Jun-16 03:00N 32°17' W 149°53'2 1.1 1022.9 21.3
2018-Jun-16 01:00N 32°16' W 149°50'0 0.0 1023.3 21.2
2018-Jun-16 00:00N 32°16' W 149°50'0 0.0 1023.5 21.3
2018-Jun-15 23:00N 32°16' W 149°50'2 0.6 1024.0 21.3
2018-Jun-15 19:00N 32°14' W 149°51'1 0.3 1024.6 21.1
2018-Jun-15 17:00N 32°13' W 149°51'2 2.1 1024.5 21.1
2018-Jun-15 16:00N 32°11' W 149°50'0 0.0 1024.4 21.2
2018-Jun-15 15:00N 32°11' W 149°50'1 1.2 1024.1 21.2
2018-Jun-15 14:00N 32°10' W 149°50'0 0.0 1024.0 21.3
2018-Jun-15 13:00N 32°10' W 149°50'0 0.0 1023.9 21.4
2018-Jun-15 12:00N 32°10' W 149°50'3 0.7 1023.8 21.4
2018-Jun-15 08:00N 32°08' W 149°48'1 1.2 1024.6 21.3
2018-Jun-15 07:00N 32°07' W 149°47'1 0.5 1024.6 21.3
2018-Jun-15 06:00N 32°07' W 149°47'1 0.8 1024.2 21.3
2018-Jun-15 05:00N 32°07' W 149°47'1 0.5 1023.8 21.3
2018-Jun-15 04:00N 32°07' W 149°47'1 0.7 1023.6 21.3
2018-Jun-15 02:00N 32°05' W 149°47'1 1.2 1023.7 21.3
2018-Jun-15 01:00N 32°04' W 149°47'0 0.0 1024.0 21.4
2018-Jun-15 00:00N 32°04' W 149°47'0 0.0 1024.3 21.4
2018-Jun-14 23:00N 32°04' W 149°47'3 1.1 1024.6 21.3
2018-Jun-14 20:00N 32°01' W 149°46'1 0.8 1025.6 21.2
2018-Jun-14 19:00N 32°01' W 149°45'1 0.6 1025.5 21.2
2018-Jun-14 18:00N 32°00' W 149°45'1 0.6 1025.2 21.2
2018-Jun-14 17:00N 31°59' W 149°45'1 0.8 1025.1 21.2
2018-Jun-14 16:00N 31°59' W 149°44'1 0.8 1024.5 21.2
2018-Jun-14 15:00N 31°58' W 149°44'1 0.5 1024.2 21.2
2018-Jun-14 14:00N 31°58' W 149°43'1 0.5 1024.0 21.2
2018-Jun-14 13:00N 31°58' W 149°44'3 3.1 1023.9 21.2
2018-Jun-14 12:00N 31°56' W 149°41'0 0.0 1024.3 21.2
2018-Jun-14 08:00N 31°56' W 149°41'0 0.0 1026.3 21.3
2018-Jun-14 07:00N 31°56' W 149°41'1 1.2 1026.2 21.4
2018-Jun-14 06:00N 31°55' W 149°41'0 0.0 1025.7 21.4
2018-Jun-14 05:00N 31°55' W 149°41'1 0.5 1025.7 21.4
2018-Jun-14 04:00N 31°55' W 149°41'1 0.6 1025.4 21.3
2018-Jun-14 03:00N 31°54' W 149°41'1 0.6 1025.1 21.4
2018-Jun-14 02:00N 31°53' W 149°41'1 1.3 1025.0 21.4
2018-Jun-14 01:00N 31°52' W 149°40'2 1.6 1025.2 21.5
2018-Jun-14 00:00N 31°51' W 149°39'1 0.2 1025.3 21.4
2018-Jun-13 20:00N 31°50' W 149°39'0 0.0 1026.4 21.3
2018-Jun-13 19:00N 31°50' W 149°39'1 0.5 1026.5 21.3
2018-Jun-13 18:00N 31°50' W 149°38'1 0.6 1026.3 21.3
2018-Jun-13 17:00N 31°50' W 149°38'0 0.0 1026.1 21.3
2018-Jun-13 16:00N 31°50' W 149°38'0 0.0 1025.6 21.3
2018-Jun-13 15:00N 31°50' W 149°38'1 0.8 1025.3 21.3
2018-Jun-13 14:00N 31°49' W 149°38'1 0.5 1025.1 21.4
2018-Jun-13 13:00N 31°49' W 149°38'2 1.6 1025.2 21.4
2018-Jun-13 12:00N 31°48' W 149°37'1 0.1 1025.5 21.3
2018-Jun-13 07:00N 31°48' W 149°38'1 0.8 1026.2 21.5
2018-Jun-13 06:00N 31°47' W 149°37'1 0.8 1025.7 21.5
2018-Jun-13 05:00N 31°47' W 149°38'1 0.8 1025.2 21.6
2018-Jun-13 04:00N 31°46' W 149°37'1 0.6 1024.7 21.6
2018-Jun-13 03:00N 31°46' W 149°37'0 0.0 1024.6 21.8
2018-Jun-13 02:00N 31°46' W 149°37'1 0.6 1024.3 21.7
2018-Jun-13 01:00N 31°45' W 149°37'1 0.5 1024.6 21.7
2018-Jun-13 00:00N 31°45' W 149°37'2 0.4 1024.9 21.8
2018-Jun-12 20:00N 31°44' W 149°35'1 0.5 1025.2 21.5
2018-Jun-12 19:00N 31°44' W 149°35'2 1.6 1025.1 21.4
2018-Jun-12 18:00N 31°44' W 149°37'1 0.8 1025.1 21.4
2018-Jun-12 17:00N 31°44' W 149°36'0 0.0 1024.5 21.4
2018-Jun-12 16:00N 31°44' W 149°36'1 0.5 1024.3 21.4
2018-Jun-12 15:00N 31°44' W 149°37'0 0.0 1024.0 21.4
2018-Jun-12 14:00N 31°44' W 149°37'1 0.5 1023.7 21.5
2018-Jun-12 13:00N 31°44' W 149°37'2 2.4 1023.8 21.4
2018-Jun-12 12:00N 31°42' W 149°39'1 0.2 1023.7 21.4
2018-Jun-12 07:00N 31°41' W 149°38'0 0.0 1024.9 21.5
2018-Jun-12 06:00N 31°41' W 149°38'1 0.5 1024.4 21.6
2018-Jun-12 05:00N 31°41' W 149°39'1 1.2 1023.9 21.6
2018-Jun-12 04:00N 31°41' W 149°40'1 0.6 1023.5 21.8
2018-Jun-12 03:00N 31°40' W 149°40'1 0.6 1023.2 21.9
2018-Jun-12 02:00N 31°40' W 149°40'0 0.0 1023.1 21.9
2018-Jun-12 01:00N 31°40' W 149°40'0 0.0 1023.3 22.0
2018-Jun-12 00:00N 31°40' W 149°40'0 0.0 1023.5 22.0
2018-Jun-11 21:00N 31°40' W 149°40'1 0.5 1024.6 21.7
2018-Jun-11 20:00N 31°40' W 149°41'1 1.0 1024.6 21.6
2018-Jun-11 19:00N 31°40' W 149°42'1 0.5 1024.8 21.5
2018-Jun-11 18:00N 31°40' W 149°43'1 0.8 1024.6 21.5
2018-Jun-11 17:00N 31°39' W 149°43'1 0.5 1024.3 21.4
2018-Jun-11 16:00N 31°39' W 149°44'1 0.6 1024.0 21.5
2018-Jun-11 15:00N 31°40' W 149°44'2 2.1 1023.5 21.5
2018-Jun-11 14:00N 31°39' W 149°46'0 0.0 1023.3 21.6
2018-Jun-11 13:00N 31°39' W 149°46'4 3.9 1023.8 21.5
2018-Jun-11 12:00N 31°36' W 149°49'1 0.1 1024.1 21.5
2018-Jun-11 07:00N 31°36' W 149°49'1 0.6 1025.7 21.9
2018-Jun-11 06:00N 31°35' W 149°49'1 1.2 1025.5 22.0
2018-Jun-11 05:00N 31°36' W 149°50'1 0.6 1025.3 22.1
2018-Jun-11 04:00N 31°35' W 149°50'0 0.0 1025.0 22.2
2018-Jun-11 03:00N 31°35' W 149°50'1 0.8 1025.2 22.2
2018-Jun-11 02:00N 31°35' W 149°50'0 0.0 1025.2 22.2
2018-Jun-11 01:00N 31°35' W 149°50'2 2.1 1025.5 22.3
2018-Jun-11 00:00N 31°34' W 149°53'1 0.3 1025.9 22.2
2018-Jun-10 20:00N 31°34' W 149°54'2 0.8 1027.4 21.6
2018-Jun-10 18:00N 31°33' W 149°55'1 0.4 1027.7 21.3
2018-Jun-10 16:00N 31°34' W 149°56'1 0.6 1027.5 21.3
2018-Jun-10 15:00N 31°33' W 149°56'1 1.0 1027.3 21.2
2018-Jun-10 14:00N 31°33' W 149°57'0 0.0 1027.2 21.3
2018-Jun-10 13:00N 31°33' W 149°57'   1027.4 21.3
Track history (hours):
 
Tides and Currents Weather Stations Pressure Air Temp Water Temp Dewpoint Dewpoint Depression Visibility Wind Speed Wind Dir Waves Ship Positions

Drifting buoy 21952

Last reported at 2018-Jun-20 13:00 UTC. Time now 2018-Jun-20 15:01 UTC.
Position N 32°40' W 149°53'.

Barometer 1017.1 mb
Water temperature 21.0 ° C

Date/timePositionNaut miles runAvg speedWind from/ knotsBaromVisibWave heightAir tempDewpointWater temp
2018-Jun-20 13:00N 32°40' W 149°53'2 2.1 1017.1 21.0
2018-Jun-20 12:00N 32°41' W 149°51'2 0.3 1016.9 20.9
2018-Jun-20 07:00N 32°42' W 149°50'1 1.3 1017.2 20.9
2018-Jun-20 06:00N 32°43' W 149°49'1 1.2 1016.8 20.9
2018-Jun-20 05:00N 32°44' W 149°49'2 1.6 1016.3 20.9
2018-Jun-20 04:00N 32°46' W 149°48'1 0.6 1015.9 21.0
2018-Jun-20 03:00N 32°46' W 149°48'2 1.9 1015.4 21.1
2018-Jun-20 02:00N 32°48' W 149°47'0 0.0 1015.3 21.2
2018-Jun-20 01:00N 32°48' W 149°47'0 0.0 1015.3 21.4
2018-Jun-20 00:00N 32°48' W 149°47'1 0.3 1015.2 22.9
2018-Jun-19 20:00N 32°49' W 149°49'1 0.6 1015.2 21.0
2018-Jun-19 19:00N 32°49' W 149°49'1 0.5 1014.9 20.9
2018-Jun-19 18:00N 32°49' W 149°49'1 0.8 1015.0 20.8
2018-Jun-19 17:00N 32°49' W 149°50'1 0.8 1014.7 20.8
2018-Jun-19 16:00N 32°49' W 149°49'1 0.6 1014.2 20.8
2018-Jun-19 15:00N 32°49' W 149°49'0 0.0 1013.9 20.8
2018-Jun-19 14:00N 32°49' W 149°49'0 0.0 1013.4 20.7
2018-Jun-19 13:00N 32°49' W 149°49'3 0.4 1013.3 20.7
2018-Jun-19 06:00N 32°46' W 149°48'1 0.6 1013.7 20.8
2018-Jun-19 05:00N 32°47' W 149°48'1 0.5 1013.3 20.8
2018-Jun-19 04:00N 32°47' W 149°49'0 0.0 1013.1 20.9
2018-Jun-19 03:00N 32°47' W 149°49'2 1.5 1012.6 20.8
2018-Jun-19 02:00N 32°47' W 149°50'0 0.0 1012.8 20.9
2018-Jun-19 01:00N 32°47' W 149°50'0 0.0 1013.0 20.8
2018-Jun-19 00:00N 32°47' W 149°50'4 1.3 1013.5 20.8
2018-Jun-18 21:00N 32°44' W 149°53'1 0.8 1014.2 21.1
2018-Jun-18 20:00N 32°43' W 149°54'0 0.0 1014.3 21.1
2018-Jun-18 19:00N 32°43' W 149°54'1 0.8 1014.3 21.1
2018-Jun-18 18:00N 32°43' W 149°55'1 0.8 1014.2 21.1
2018-Jun-18 17:00N 32°42' W 149°55'1 1.2 1014.1 21.1
2018-Jun-18 16:00N 32°41' W 149°56'0 0.0 1013.8 21.1
2018-Jun-18 15:00N 32°41' W 149°56'1 1.2 1013.6 21.2
2018-Jun-18 14:00N 32°41' W 149°55'3 3.4 1013.5 21.2
2018-Jun-18 13:00N 32°38' W 149°57'1 0.1 1013.8 21.2
2018-Jun-18 07:00N 32°37' W 149°57'1 0.6 1016.2 21.2
2018-Jun-18 06:00N 32°37' W 149°57'1 1.2 1016.0 21.3
2018-Jun-18 05:00N 32°37' W 149°58'1 0.8 1015.9 21.3
2018-Jun-18 04:00N 32°37' W 149°58'1 0.5 1015.8 21.3
2018-Jun-18 03:00N 32°37' W 149°57'3 2.5 1015.9 21.3
2018-Jun-18 02:00N 32°37' W 150°00'0 0.0 1016.2 21.3
2018-Jun-18 01:00N 32°37' W 150°00'1 0.5 1016.6 21.3
2018-Jun-17 23:00N 32°37' W 149°59'3 0.9 1017.4 21.3
2018-Jun-17 20:00N 32°35' W 150°01'0 0.0 1018.4 21.3
2018-Jun-17 19:00N 32°35' W 150°01'1 1.2 1018.5 21.3
2018-Jun-17 18:00N 32°35' W 150°00'2 2.1 1018.6 21.3
2018-Jun-17 17:00N 32°34' W 150°01'1 0.6 1018.8 21.3
2018-Jun-17 16:00N 32°33' W 150°01'1 0.8 1018.8 21.3
2018-Jun-17 15:00N 32°32' W 150°01'1 1.2 1018.7 21.3
2018-Jun-17 14:00N 32°32' W 149°59'3 3.0 1018.6 21.2
2018-Jun-17 13:00N 32°29' W 150°00'1 0.1 1018.3 21.3
2018-Jun-17 07:00N 32°29' W 149°59'1 0.5 1021.2 21.3
2018-Jun-17 06:00N 32°29' W 149°59'0 0.0 1020.9 21.3
2018-Jun-17 05:00N 32°29' W 149°59'1 0.6 1020.8 21.3
2018-Jun-17 04:00N 32°28' W 149°59'1 1.2 1020.9 21.3
2018-Jun-17 03:00N 32°27' W 149°59'0 0.0 1021.0 21.3
2018-Jun-17 02:00N 32°27' W 149°59'0 0.0 1021.1 21.3
2018-Jun-17 01:00N 32°27' W 149°59'1 0.6 1021.2 21.3
2018-Jun-17 00:00N 32°26' W 149°59'0 0.0 1021.6 21.3
2018-Jun-16 23:00N 32°26' W 149°59'2 0.9 1022.2 21.2
2018-Jun-16 21:00N 32°25' W 149°58'1 0.6 1022.6 21.1
2018-Jun-16 20:00N 32°24' W 149°58'1 0.8 1022.9 21.0
2018-Jun-16 19:00N 32°23' W 149°58'1 0.8 1023.0 21.0
2018-Jun-16 18:00N 32°23' W 149°57'0 0.0 1023.2 21.0
2018-Jun-16 17:00N 32°23' W 149°57'1 0.6 1022.8 21.0
2018-Jun-16 16:00N 32°22' W 149°57'0 0.0 1022.6 20.9
2018-Jun-16 15:00N 32°22' W 149°57'1 1.2 1022.3 20.9
2018-Jun-16 14:00N 32°21' W 149°57'0 0.0 1022.5 21.0
2018-Jun-16 12:00N 32°21' W 149°57'3 3.2 1022.5 21.0
2018-Jun-16 11:00N 32°18' W 149°56'1 0.3 1022.8 21.1
2018-Jun-16 07:00N 32°17' W 149°55'0 0.0 1023.5 21.1
2018-Jun-16 06:00N 32°17' W 149°55'1 1.2 1023.2 21.2
2018-Jun-16 05:00N 32°17' W 149°53'1 0.5 1023.1 21.2
2018-Jun-16 04:00N 32°17' W 149°53'0 0.0 1022.9 21.3
2018-Jun-16 03:00N 32°17' W 149°53'2 1.1 1022.9 21.3
2018-Jun-16 01:00N 32°16' W 149°50'0 0.0 1023.3 21.2
2018-Jun-16 00:00N 32°16' W 149°50'0 0.0 1023.5 21.3
2018-Jun-15 23:00N 32°16' W 149°50'2 0.6 1024.0 21.3
2018-Jun-15 19:00N 32°14' W 149°51'1 0.3 1024.6 21.1
2018-Jun-15 17:00N 32°13' W 149°51'2 2.1 1024.5 21.1
2018-Jun-15 16:00N 32°11' W 149°50'0 0.0 1024.4 21.2
2018-Jun-15 15:00N 32°11' W 149°50'1 1.2 1024.1 21.2
2018-Jun-15 14:00N 32°10' W 149°50'0 0.0 1024.0 21.3
2018-Jun-15 13:00N 32°10' W 149°50'0 0.0 1023.9 21.4
2018-Jun-15 12:00N 32°10' W 149°50'3 0.7 1023.8 21.4
2018-Jun-15 08:00N 32°08' W 149°48'1 1.2 1024.6 21.3
2018-Jun-15 07:00N 32°07' W 149°47'1 0.5 1024.6 21.3
2018-Jun-15 06:00N 32°07' W 149°47'1 0.8 1024.2 21.3
2018-Jun-15 05:00N 32°07' W 149°47'1 0.5 1023.8 21.3
2018-Jun-15 04:00N 32°07' W 149°47'1 0.7 1023.6 21.3
2018-Jun-15 02:00N 32°05' W 149°47'1 1.2 1023.7 21.3
2018-Jun-15 01:00N 32°04' W 149°47'0 0.0 1024.0 21.4
2018-Jun-15 00:00N 32°04' W 149°47'0 0.0 1024.3 21.4
2018-Jun-14 23:00N 32°04' W 149°47'3 1.1 1024.6 21.3
2018-Jun-14 20:00N 32°01' W 149°46'1 0.8 1025.6 21.2
2018-Jun-14 19:00N 32°01' W 149°45'1 0.6 1025.5 21.2
2018-Jun-14 18:00N 32°00' W 149°45'1 0.6 1025.2 21.2
2018-Jun-14 17:00N 31°59' W 149°45'1 0.8 1025.1 21.2
2018-Jun-14 16:00N 31°59' W 149°44'1 0.8 1024.5 21.2
2018-Jun-14 15:00N 31°58' W 149°44'1 0.5 1024.2 21.2
2018-Jun-14 14:00N 31°58' W 149°43'1 0.5 1024.0 21.2
2018-Jun-14 13:00N 31°58' W 149°44'3 3.1 1023.9 21.2
2018-Jun-14 12:00N 31°56' W 149°41'0 0.0 1024.3 21.2
2018-Jun-14 08:00N 31°56' W 149°41'0 0.0 1026.3 21.3
2018-Jun-14 07:00N 31°56' W 149°41'1 1.2 1026.2 21.4
2018-Jun-14 06:00N 31°55' W 149°41'0 0.0 1025.7 21.4
2018-Jun-14 05:00N 31°55' W 149°41'1 0.5 1025.7 21.4
2018-Jun-14 04:00N 31°55' W 149°41'1 0.6 1025.4 21.3
2018-Jun-14 03:00N 31°54' W 149°41'1 0.6 1025.1 21.4
2018-Jun-14 02:00N 31°53' W 149°41'1 1.3 1025.0 21.4
2018-Jun-14 01:00N 31°52' W 149°40'2 1.6 1025.2 21.5
2018-Jun-14 00:00N 31°51' W 149°39'1 0.2 1025.3 21.4
2018-Jun-13 20:00N 31°50' W 149°39'0 0.0 1026.4 21.3
2018-Jun-13 19:00N 31°50' W 149°39'1 0.5 1026.5 21.3
2018-Jun-13 18:00N 31°50' W 149°38'1 0.6 1026.3 21.3
2018-Jun-13 17:00N 31°50' W 149°38'0 0.0 1026.1 21.3
2018-Jun-13 16:00N 31°50' W 149°38'0 0.0 1025.6 21.3
2018-Jun-13 15:00N 31°50' W 149°38'1 0.8 1025.3 21.3
2018-Jun-13 14:00N 31°49' W 149°38'1 0.5 1025.1 21.4
2018-Jun-13 13:00N 31°49' W 149°38'2 1.6 1025.2 21.4
2018-Jun-13 12:00N 31°48' W 149°37'1 0.1 1025.5 21.3
2018-Jun-13 07:00N 31°48' W 149°38'1 0.8 1026.2 21.5
2018-Jun-13 06:00N 31°47' W 149°37'1 0.8 1025.7 21.5
2018-Jun-13 05:00N 31°47' W 149°38'1 0.8 1025.2 21.6
2018-Jun-13 04:00N 31°46' W 149°37'1 0.6 1024.7 21.6
2018-Jun-13 03:00N 31°46' W 149°37'0 0.0 1024.6 21.8
2018-Jun-13 02:00N 31°46' W 149°37'1 0.6 1024.3 21.7
2018-Jun-13 01:00N 31°45' W 149°37'1 0.5 1024.6 21.7
2018-Jun-13 00:00N 31°45' W 149°37'2 0.4 1024.9 21.8
2018-Jun-12 20:00N 31°44' W 149°35'1 0.5 1025.2 21.5
2018-Jun-12 19:00N 31°44' W 149°35'2 1.6 1025.1 21.4
2018-Jun-12 18:00N 31°44' W 149°37'1 0.8 1025.1 21.4
2018-Jun-12 17:00N 31°44' W 149°36'0 0.0 1024.5 21.4
2018-Jun-12 16:00N 31°44' W 149°36'1 0.5 1024.3 21.4
2018-Jun-12 15:00N 31°44' W 149°37'0 0.0 1024.0 21.4
2018-Jun-12 14:00N 31°44' W 149°37'1 0.5 1023.7 21.5
2018-Jun-12 13:00N 31°44' W 149°37'2 2.4 1023.8 21.4
2018-Jun-12 12:00N 31°42' W 149°39'1 0.2 1023.7 21.4
2018-Jun-12 07:00N 31°41' W 149°38'0 0.0 1024.9 21.5
2018-Jun-12 06:00N 31°41' W 149°38'1 0.5 1024.4 21.6
2018-Jun-12 05:00N 31°41' W 149°39'1 1.2 1023.9 21.6
2018-Jun-12 04:00N 31°41' W 149°40'1 0.6 1023.5 21.8
2018-Jun-12 03:00N 31°40' W 149°40'1 0.6 1023.2 21.9
2018-Jun-12 02:00N 31°40' W 149°40'0 0.0 1023.1 21.9
2018-Jun-12 01:00N 31°40' W 149°40'0 0.0 1023.3 22.0
2018-Jun-12 00:00N 31°40' W 149°40'0 0.0 1023.5 22.0
2018-Jun-11 21:00N 31°40' W 149°40'1 0.5 1024.6 21.7
2018-Jun-11 20:00N 31°40' W 149°41'1 1.0 1024.6 21.6
2018-Jun-11 19:00N 31°40' W 149°42'1 0.5 1024.8 21.5
2018-Jun-11 18:00N 31°40' W 149°43'1 0.8 1024.6 21.5
2018-Jun-11 17:00N 31°39' W 149°43'1 0.5 1024.3 21.4
2018-Jun-11 16:00N 31°39' W 149°44'1 0.6 1024.0 21.5
2018-Jun-11 15:00N 31°40' W 149°44'2 2.1 1023.5 21.5
2018-Jun-11 14:00N 31°39' W 149°46'0 0.0 1023.3 21.6
2018-Jun-11 13:00N 31°39' W 149°46'4 3.9 1023.8 21.5
2018-Jun-11 12:00N 31°36' W 149°49'1 0.1 1024.1 21.5
2018-Jun-11 07:00N 31°36' W 149°49'1 0.6 1025.7 21.9
2018-Jun-11 06:00N 31°35' W 149°49'1 1.2 1025.5 22.0
2018-Jun-11 05:00N 31°36' W 149°50'1 0.6 1025.3 22.1
2018-Jun-11 04:00N 31°35' W 149°50'0 0.0 1025.0 22.2
2018-Jun-11 03:00N 31°35' W 149°50'1 0.8 1025.2 22.2
2018-Jun-11 02:00N 31°35' W 149°50'0 0.0 1025.2 22.2
2018-Jun-11 01:00N 31°35' W 149°50'2 2.1 1025.5 22.3
2018-Jun-11 00:00N 31°34' W 149°53'1 0.3 1025.9 22.2
2018-Jun-10 20:00N 31°34' W 149°54'2 0.8 1027.4 21.6
2018-Jun-10 18:00N 31°33' W 149°55'1 0.4 1027.7 21.3
2018-Jun-10 16:00N 31°34' W 149°56'1 0.6 1027.5 21.3
2018-Jun-10 15:00N 31°33' W 149°56'1 1.0 1027.3 21.2
2018-Jun-10 14:00N 31°33' W 149°57'0 0.0 1027.2 21.3
2018-Jun-10 13:00N 31°33' W 149°57'   1027.4 21.3

Dump ship's entire track history